sensor_id;sensor_type;location;lat;lon;timestamp;P1;durP1;ratioP1;P2;durP2;ratioP2
11829;SDS011;5972;42.134;24.718;2022-07-29T00:00:09;5.20;;;2.80;;
11829;SDS011;5972;42.134;24.718;2022-07-29T00:02:37;6.20;;;3.00;;
11829;SDS011;5972;42.134;24.718;2022-07-29T00:05:04;4.88;;;2.92;;
11829;SDS011;5972;42.134;24.718;2022-07-29T00:07:34;2.80;;;2.60;;
11829;SDS011;5972;42.134;24.718;2022-07-29T00:10:01;5.45;;;3.08;;
11829;SDS011;5972;42.134;24.718;2022-07-29T00:12:29;5.93;;;3.17;;
11829;SDS011;5972;42.134;24.718;2022-07-29T00:14:56;6.60;;;3.50;;
11829;SDS011;5972;42.134;24.718;2022-07-29T00:17:23;7.88;;;3.60;;
11829;SDS011;5972;42.134;24.718;2022-07-29T00:19:52;4.40;;;3.25;;
11829;SDS011;5972;42.134;24.718;2022-07-29T00:22:19;6.55;;;3.75;;
11829;SDS011;5972;42.134;24.718;2022-07-29T00:24:48;4.00;;;3.47;;
11829;SDS011;5972;42.134;24.718;2022-07-29T00:27:15;6.07;;;3.42;;
11829;SDS011;5972;42.134;24.718;2022-07-29T00:29:42;5.55;;;3.40;;
11829;SDS011;5972;42.134;24.718;2022-07-29T00:32:09;7.88;;;3.50;;
11829;SDS011;5972;42.134;24.718;2022-07-29T00:34:36;5.55;;;3.67;;
11829;SDS011;5972;42.134;24.718;2022-07-29T00:37:20;5.05;;;3.53;;
11829;SDS011;5972;42.134;24.718;2022-07-29T00:39:48;5.47;;;3.33;;
11829;SDS011;5972;42.134;24.718;2022-07-29T00:42:15;4.63;;;3.35;;
11829;SDS011;5972;42.134;24.718;2022-07-29T00:44:42;4.25;;;3.85;;
11829;SDS011;5972;42.134;24.718;2022-07-29T00:47:09;6.85;;;4.00;;
11829;SDS011;5972;42.134;24.718;2022-07-29T00:49:37;5.55;;;3.88;;
11829;SDS011;5972;42.134;24.718;2022-07-29T00:52:05;6.22;;;3.67;;
11829;SDS011;5972;42.134;24.718;2022-07-29T00:54:33;7.75;;;4.00;;
11829;SDS011;5972;42.134;24.718;2022-07-29T00:57:02;5.07;;;3.55;;
11829;SDS011;5972;42.134;24.718;2022-07-29T00:59:29;5.25;;;3.88;;
11829;SDS011;5972;42.134;24.718;2022-07-29T01:01:56;7.82;;;3.97;;
11829;SDS011;5972;42.134;24.718;2022-07-29T01:04:23;4.80;;;4.20;;
11829;SDS011;5972;42.134;24.718;2022-07-29T01:06:50;7.25;;;4.32;;
11829;SDS011;5972;42.134;24.718;2022-07-29T01:09:17;5.30;;;4.28;;
11829;SDS011;5972;42.134;24.718;2022-07-29T01:11:45;5.88;;;4.13;;
11829;SDS011;5972;42.134;24.718;2022-07-29T01:14:15;6.45;;;4.35;;
11829;SDS011;5972;42.134;24.718;2022-07-29T01:16:45;5.50;;;4.28;;
11829;SDS011;5972;42.134;24.718;2022-07-29T01:19:22;6.75;;;4.20;;
11829;SDS011;5972;42.134;24.718;2022-07-29T01:22:13;6.03;;;4.15;;
11829;SDS011;5972;42.134;24.718;2022-07-29T01:25:00;6.07;;;4.30;;
11829;SDS011;5972;42.134;24.718;2022-07-29T01:27:41;5.72;;;4.15;;
11829;SDS011;5972;42.134;24.718;2022-07-29T01:30:18;4.70;;;4.30;;
11829;SDS011;5972;42.134;24.718;2022-07-29T01:32:49;4.35;;;3.97;;
11829;SDS011;5972;42.134;24.718;2022-07-29T01:35:22;5.40;;;4.07;;
11829;SDS011;5972;42.134;24.718;2022-07-29T01:37:54;5.03;;;4.05;;
11829;SDS011;5972;42.134;24.718;2022-07-29T01:40:24;5.00;;;4.13;;
11829;SDS011;5972;42.134;24.718;2022-07-29T01:42:55;7.95;;;3.78;;
11829;SDS011;5972;42.134;24.718;2022-07-29T01:45:26;4.38;;;3.97;;
11829;SDS011;5972;42.134;24.718;2022-07-29T01:48:06;6.93;;;4.10;;
11829;SDS011;5972;42.134;24.718;2022-07-29T01:50:40;5.82;;;4.28;;
11829;SDS011;5972;42.134;24.718;2022-07-29T01:53:12;8.85;;;4.25;;
11829;SDS011;5972;42.134;24.718;2022-07-29T01:55:44;8.25;;;3.90;;
11829;SDS011;5972;42.134;24.718;2022-07-29T01:58:14;9.68;;;4.20;;
11829;SDS011;5972;42.134;24.718;2022-07-29T02:00:45;6.53;;;4.10;;
11829;SDS011;5972;42.134;24.718;2022-07-29T02:03:14;5.68;;;4.18;;
11829;SDS011;5972;42.134;24.718;2022-07-29T02:05:45;5.75;;;4.25;;
11829;SDS011;5972;42.134;24.718;2022-07-29T02:08:14;4.65;;;4.15;;
11829;SDS011;5972;42.134;24.718;2022-07-29T02:10:43;5.43;;;4.18;;
11829;SDS011;5972;42.134;24.718;2022-07-29T02:13:12;5.68;;;4.35;;
11829;SDS011;5972;42.134;24.718;2022-07-29T02:15:39;6.50;;;4.22;;
11829;SDS011;5972;42.134;24.718;2022-07-29T02:18:11;4.85;;;4.28;;
11829;SDS011;5972;42.134;24.718;2022-07-29T02:20:42;6.95;;;4.43;;
11829;SDS011;5972;42.134;24.718;2022-07-29T02:23:13;4.90;;;4.53;;
11829;SDS011;5972;42.134;24.718;2022-07-29T02:25:43;5.10;;;4.60;;
11829;SDS011;5972;42.134;24.718;2022-07-29T02:28:11;5.93;;;5.03;;
11829;SDS011;5972;42.134;24.718;2022-07-29T02:30:40;5.68;;;5.13;;
11829;SDS011;5972;42.134;24.718;2022-07-29T02:33:12;6.07;;;4.97;;
11829;SDS011;5972;42.134;24.718;2022-07-29T02:35:42;5.65;;;4.70;;
11829;SDS011;5972;42.134;24.718;2022-07-29T02:38:13;5.82;;;4.78;;
11829;SDS011;5972;42.134;24.718;2022-07-29T02:41:00;6.05;;;4.95;;
11829;SDS011;5972;42.134;24.718;2022-07-29T02:43:29;7.05;;;5.38;;
11829;SDS011;5972;42.134;24.718;2022-07-29T02:45:58;5.88;;;5.05;;
11829;SDS011;5972;42.134;24.718;2022-07-29T02:48:31;6.18;;;4.78;;
11829;SDS011;5972;42.134;24.718;2022-07-29T02:51:05;8.35;;;4.80;;
11829;SDS011;5972;42.134;24.718;2022-07-29T02:53:36;7.47;;;4.72;;
11829;SDS011;5972;42.134;24.718;2022-07-29T02:56:09;8.98;;;4.97;;
11829;SDS011;5972;42.134;24.718;2022-07-29T02:58:40;8.77;;;4.82;;
11829;SDS011;5972;42.134;24.718;2022-07-29T03:01:16;7.72;;;4.90;;
11829;SDS011;5972;42.134;24.718;2022-07-29T03:03:49;8.10;;;4.85;;
11829;SDS011;5972;42.134;24.718;2022-07-29T03:06:19;10.63;;;5.03;;
11829;SDS011;5972;42.134;24.718;2022-07-29T03:08:48;6.65;;;5.25;;
11829;SDS011;5972;42.134;24.718;2022-07-29T03:11:16;10.85;;;4.85;;
11829;SDS011;5972;42.134;24.718;2022-07-29T03:13:44;7.90;;;5.00;;
11829;SDS011;5972;42.134;24.718;2022-07-29T03:16:11;5.32;;;4.60;;
11829;SDS011;5972;42.134;24.718;2022-07-29T03:18:39;8.90;;;4.55;;
11829;SDS011;5972;42.134;24.718;2022-07-29T03:21:08;7.22;;;4.82;;
11829;SDS011;5972;42.134;24.718;2022-07-29T03:23:35;5.68;;;4.53;;
11829;SDS011;5972;42.134;24.718;2022-07-29T03:26:02;6.70;;;4.50;;
11829;SDS011;5972;42.134;24.718;2022-07-29T03:28:29;8.68;;;4.85;;
11829;SDS011;5972;42.134;24.718;2022-07-29T03:30:56;5.65;;;4.65;;
11829;SDS011;5972;42.134;24.718;2022-07-29T03:33:23;13.07;;;5.40;;
11829;SDS011;5972;42.134;24.718;2022-07-29T03:35:49;7.03;;;4.60;;
11829;SDS011;5972;42.134;24.718;2022-07-29T03:38:18;7.03;;;5.78;;
11829;SDS011;5972;42.134;24.718;2022-07-29T03:40:46;14.85;;;4.93;;
11829;SDS011;5972;42.134;24.718;2022-07-29T03:43:16;7.53;;;5.20;;
11829;SDS011;5972;42.134;24.718;2022-07-29T03:45:46;7.10;;;5.00;;
11829;SDS011;5972;42.134;24.718;2022-07-29T03:48:16;7.60;;;5.35;;
11829;SDS011;5972;42.134;24.718;2022-07-29T03:50:45;5.90;;;4.75;;
11829;SDS011;5972;42.134;24.718;2022-07-29T03:53:12;6.35;;;4.95;;
11829;SDS011;5972;42.134;24.718;2022-07-29T03:55:41;10.07;;;5.55;;
11829;SDS011;5972;42.134;24.718;2022-07-29T03:58:11;9.68;;;5.65;;
11829;SDS011;5972;42.134;24.718;2022-07-29T04:00:39;9.52;;;6.80;;
11829;SDS011;5972;42.134;24.718;2022-07-29T04:03:07;7.15;;;6.53;;
11829;SDS011;5972;42.134;24.718;2022-07-29T04:05:35;9.23;;;7.22;;
11829;SDS011;5972;42.134;24.718;2022-07-29T04:08:02;10.25;;;6.28;;
11829;SDS011;5972;42.134;24.718;2022-07-29T04:10:29;8.70;;;6.43;;
11829;SDS011;5972;42.134;24.718;2022-07-29T04:12:57;12.18;;;6.43;;
11829;SDS011;5972;42.134;24.718;2022-07-29T04:15:25;10.80;;;6.50;;
11829;SDS011;5972;42.134;24.718;2022-07-29T04:17:53;7.68;;;6.57;;
11829;SDS011;5972;42.134;24.718;2022-07-29T04:20:20;9.55;;;7.25;;
11829;SDS011;5972;42.134;24.718;2022-07-29T04:22:47;11.93;;;7.95;;
11829;SDS011;5972;42.134;24.718;2022-07-29T04:25:14;11.45;;;10.00;;
11829;SDS011;5972;42.134;24.718;2022-07-29T04:27:41;11.95;;;10.68;;
11829;SDS011;5972;42.134;24.718;2022-07-29T04:30:23;15.60;;;11.73;;
11829;SDS011;5972;42.134;24.718;2022-07-29T04:32:49;12.68;;;11.27;;
11829;SDS011;5972;42.134;24.718;2022-07-29T04:35:16;16.95;;;15.13;;
11829;SDS011;5972;42.134;24.718;2022-07-29T04:37:43;19.00;;;13.45;;
11829;SDS011;5972;42.134;24.718;2022-07-29T04:40:10;14.73;;;10.85;;
11829;SDS011;5972;42.134;24.718;2022-07-29T04:42:38;13.18;;;10.23;;
11829;SDS011;5972;42.134;24.718;2022-07-29T04:45:05;11.35;;;9.65;;
11829;SDS011;5972;42.134;24.718;2022-07-29T04:47:34;13.43;;;9.93;;
11829;SDS011;5972;42.134;24.718;2022-07-29T04:50:01;10.98;;;8.93;;
11829;SDS011;5972;42.134;24.718;2022-07-29T04:52:28;10.00;;;9.00;;
11829;SDS011;5972;42.134;24.718;2022-07-29T04:54:55;11.27;;;8.90;;
11829;SDS011;5972;42.134;24.718;2022-07-29T04:57:21;9.52;;;8.73;;
11829;SDS011;5972;42.134;24.718;2022-07-29T04:59:48;9.02;;;8.02;;
11829;SDS011;5972;42.134;24.718;2022-07-29T05:02:15;8.95;;;8.05;;
11829;SDS011;5972;42.134;24.718;2022-07-29T05:04:43;13.43;;;8.27;;
11829;SDS011;5972;42.134;24.718;2022-07-29T05:07:10;10.23;;;7.82;;
11829;SDS011;5972;42.134;24.718;2022-07-29T05:09:37;9.43;;;7.35;;
11829;SDS011;5972;42.134;24.718;2022-07-29T05:12:04;15.32;;;7.93;;
11829;SDS011;5972;42.134;24.718;2022-07-29T05:14:32;15.77;;;7.38;;
11829;SDS011;5972;42.134;24.718;2022-07-29T05:16:58;8.38;;;6.70;;
11829;SDS011;5972;42.134;24.718;2022-07-29T05:19:25;6.80;;;6.20;;
11829;SDS011;5972;42.134;24.718;2022-07-29T05:21:53;7.47;;;6.10;;
11829;SDS011;5972;42.134;24.718;2022-07-29T05:24:20;6.10;;;5.50;;
11829;SDS011;5972;42.134;24.718;2022-07-29T05:26:47;10.77;;;6.03;;
11829;SDS011;5972;42.134;24.718;2022-07-29T05:29:14;12.88;;;5.80;;
11829;SDS011;5972;42.134;24.718;2022-07-29T05:31:41;7.40;;;5.55;;
11829;SDS011;5972;42.134;24.718;2022-07-29T05:34:08;7.20;;;5.25;;
11829;SDS011;5972;42.134;24.718;2022-07-29T05:36:35;8.07;;;5.43;;
11829;SDS011;5972;42.134;24.718;2022-07-29T05:39:03;6.18;;;4.72;;
11829;SDS011;5972;42.134;24.718;2022-07-29T05:41:31;7.32;;;5.20;;
11829;SDS011;5972;42.134;24.718;2022-07-29T05:43:58;11.50;;;5.03;;
11829;SDS011;5972;42.134;24.718;2022-07-29T05:46:25;6.00;;;5.40;;
11829;SDS011;5972;42.134;24.718;2022-07-29T05:48:52;8.80;;;4.95;;
11829;SDS011;5972;42.134;24.718;2022-07-29T05:51:20;11.65;;;5.45;;
11829;SDS011;5972;42.134;24.718;2022-07-29T05:53:47;9.13;;;5.15;;
11829;SDS011;5972;42.134;24.718;2022-07-29T05:56:15;11.07;;;5.20;;
11829;SDS011;5972;42.134;24.718;2022-07-29T05:58:42;5.90;;;5.35;;
11829;SDS011;5972;42.134;24.718;2022-07-29T06:01:09;6.40;;;5.80;;
11829;SDS011;5972;42.134;24.718;2022-07-29T06:03:36;7.80;;;5.55;;
11829;SDS011;5972;42.134;24.718;2022-07-29T06:06:03;7.82;;;5.15;;
11829;SDS011;5972;42.134;24.718;2022-07-29T06:08:32;8.02;;;6.05;;
11829;SDS011;5972;42.134;24.718;2022-07-29T06:10:59;7.00;;;6.25;;
11829;SDS011;5972;42.134;24.718;2022-07-29T06:13:28;6.18;;;5.57;;
11829;SDS011;5972;42.134;24.718;2022-07-29T06:15:55;6.57;;;6.07;;
11829;SDS011;5972;42.134;24.718;2022-07-29T06:18:22;9.43;;;6.47;;
11829;SDS011;5972;42.134;24.718;2022-07-29T06:20:49;7.10;;;6.40;;
11829;SDS011;5972;42.134;24.718;2022-07-29T06:23:16;6.97;;;6.28;;
11829;SDS011;5972;42.134;24.718;2022-07-29T06:25:43;7.25;;;6.30;;
11829;SDS011;5972;42.134;24.718;2022-07-29T06:28:11;6.95;;;6.22;;
11829;SDS011;5972;42.134;24.718;2022-07-29T06:30:39;7.93;;;5.60;;
11829;SDS011;5972;42.134;24.718;2022-07-29T06:33:06;6.50;;;6.00;;
11829;SDS011;5972;42.134;24.718;2022-07-29T06:35:33;9.80;;;5.90;;
11829;SDS011;5972;42.134;24.718;2022-07-29T06:38:01;12.98;;;6.10;;
11829;SDS011;5972;42.134;24.718;2022-07-29T06:40:28;6.68;;;5.82;;
11829;SDS011;5972;42.134;24.718;2022-07-29T06:43:13;8.68;;;5.68;;
11829;SDS011;5972;42.134;24.718;2022-07-29T06:45:41;6.47;;;5.95;;
11829;SDS011;5972;42.134;24.718;2022-07-29T06:48:08;7.78;;;6.03;;
11829;SDS011;5972;42.134;24.718;2022-07-29T06:50:35;10.77;;;6.45;;
11829;SDS011;5972;42.134;24.718;2022-07-29T06:53:02;7.93;;;6.32;;
11829;SDS011;5972;42.134;24.718;2022-07-29T06:55:30;8.57;;;6.30;;
11829;SDS011;5972;42.134;24.718;2022-07-29T06:57:57;6.88;;;6.30;;
11829;SDS011;5972;42.134;24.718;2022-07-29T07:00:24;13.00;;;6.65;;
11829;SDS011;5972;42.134;24.718;2022-07-29T07:02:52;6.72;;;6.03;;
11829;SDS011;5972;42.134;24.718;2022-07-29T07:05:19;5.90;;;5.40;;
11829;SDS011;5972;42.134;24.718;2022-07-29T07:07:46;6.57;;;5.97;;
11829;SDS011;5972;42.134;24.718;2022-07-29T07:10:13;7.25;;;5.80;;
11829;SDS011;5972;42.134;24.718;2022-07-29T07:12:40;8.23;;;6.28;;
11829;SDS011;5972;42.134;24.718;2022-07-29T07:15:07;6.55;;;5.70;;
11829;SDS011;5972;42.134;24.718;2022-07-29T07:17:34;10.35;;;6.55;;
11829;SDS011;5972;42.134;24.718;2022-07-29T07:20:04;7.43;;;6.28;;
11829;SDS011;5972;42.134;24.718;2022-07-29T07:22:32;9.60;;;6.40;;
11829;SDS011;5972;42.134;24.718;2022-07-29T07:24:59;6.68;;;6.05;;
11829;SDS011;5972;42.134;24.718;2022-07-29T07:27:25;7.25;;;6.55;;
11829;SDS011;5972;42.134;24.718;2022-07-29T07:29:52;7.68;;;5.53;;
11829;SDS011;5972;42.134;24.718;2022-07-29T07:32:19;10.05;;;5.93;;
11829;SDS011;5972;42.134;24.718;2022-07-29T07:34:46;12.88;;;5.95;;
11829;SDS011;5972;42.134;24.718;2022-07-29T07:37:14;8.30;;;5.90;;
11829;SDS011;5972;42.134;24.718;2022-07-29T07:39:42;9.00;;;5.78;;
11829;SDS011;5972;42.134;24.718;2022-07-29T07:42:09;9.20;;;5.68;;
11829;SDS011;5972;42.134;24.718;2022-07-29T07:44:37;6.97;;;5.82;;
11829;SDS011;5972;42.134;24.718;2022-07-29T07:47:04;12.90;;;5.85;;
11829;SDS011;5972;42.134;24.718;2022-07-29T07:49:32;7.38;;;5.30;;
11829;SDS011;5972;42.134;24.718;2022-07-29T07:51:58;8.43;;;4.72;;
11829;SDS011;5972;42.134;24.718;2022-07-29T07:54:27;6.63;;;5.10;;
11829;SDS011;5972;42.134;24.718;2022-07-29T07:56:53;6.60;;;5.30;;
11829;SDS011;5972;42.134;24.718;2022-07-29T07:59:20;9.55;;;5.30;;
11829;SDS011;5972;42.134;24.718;2022-07-29T08:01:47;8.25;;;5.40;;
11829;SDS011;5972;42.134;24.718;2022-07-29T08:04:14;8.48;;;5.13;;
11829;SDS011;5972;42.134;24.718;2022-07-29T08:06:41;8.52;;;5.43;;
11829;SDS011;5972;42.134;24.718;2022-07-29T08:09:08;8.25;;;4.95;;
11829;SDS011;5972;42.134;24.718;2022-07-29T08:11:36;5.72;;;4.50;;
11829;SDS011;5972;42.134;24.718;2022-07-29T08:14:03;8.38;;;4.47;;
11829;SDS011;5972;42.134;24.718;2022-07-29T08:16:30;6.22;;;3.47;;
11829;SDS011;5972;42.134;24.718;2022-07-29T08:18:57;4.85;;;3.42;;
11829;SDS011;5972;42.134;24.718;2022-07-29T08:21:23;11.60;;;3.70;;
11829;SDS011;5972;42.134;24.718;2022-07-29T08:23:51;4.05;;;3.42;;
11829;SDS011;5972;42.134;24.718;2022-07-29T08:26:40;8.02;;;3.63;;
11829;SDS011;5972;42.134;24.718;2022-07-29T08:29:07;4.60;;;3.30;;
11829;SDS011;5972;42.134;24.718;2022-07-29T08:31:34;3.35;;;3.05;;
11829;SDS011;5972;42.134;24.718;2022-07-29T08:34:01;5.18;;;3.38;;
11829;SDS011;5972;42.134;24.718;2022-07-29T08:36:28;5.45;;;3.30;;
11829;SDS011;5972;42.134;24.718;2022-07-29T08:38:55;4.88;;;3.28;;
11829;SDS011;5972;42.134;24.718;2022-07-29T08:41:22;4.88;;;3.30;;
11829;SDS011;5972;42.134;24.718;2022-07-29T08:43:51;4.28;;;3.50;;
11829;SDS011;5972;42.134;24.718;2022-07-29T08:46:18;3.50;;;3.20;;
11829;SDS011;5972;42.134;24.718;2022-07-29T08:48:45;3.67;;;3.38;;
11829;SDS011;5972;42.134;24.718;2022-07-29T08:51:14;4.53;;;2.80;;
11829;SDS011;5972;42.134;24.718;2022-07-29T08:53:42;3.30;;;3.00;;
11829;SDS011;5972;42.134;24.718;2022-07-29T08:56:11;6.40;;;3.60;;
11829;SDS011;5972;42.134;24.718;2022-07-29T08:58:39;5.30;;;3.35;;
11829;SDS011;5972;42.134;24.718;2022-07-29T09:01:08;4.95;;;3.35;;
11829;SDS011;5972;42.134;24.718;2022-07-29T09:03:38;4.55;;;3.65;;
11829;SDS011;5972;42.134;24.718;2022-07-29T09:06:06;4.97;;;3.72;;
11829;SDS011;5972;42.134;24.718;2022-07-29T09:08:34;6.90;;;3.58;;
11829;SDS011;5972;42.134;24.718;2022-07-29T09:11:01;3.65;;;3.35;;
11829;SDS011;5972;42.134;24.718;2022-07-29T09:13:28;3.25;;;2.80;;
11829;SDS011;5972;42.134;24.718;2022-07-29T09:15:55;3.47;;;3.00;;
11829;SDS011;5972;42.134;24.718;2022-07-29T09:21:09;2.92;;;2.65;;
11829;SDS011;5972;42.134;24.718;2022-07-29T09:24:01;3.20;;;2.90;;
11829;SDS011;5972;42.134;24.718;2022-07-29T09:26:32;2.88;;;2.65;;
11829;SDS011;5972;42.134;24.718;2022-07-29T09:29:01;6.05;;;2.60;;
11829;SDS011;5972;42.134;24.718;2022-07-29T09:31:34;3.83;;;2.80;;
11829;SDS011;5972;42.134;24.718;2022-07-29T09:34:04;6.13;;;3.05;;
11829;SDS011;5972;42.134;24.718;2022-07-29T09:36:37;7.15;;;2.90;;
11829;SDS011;5972;42.134;24.718;2022-07-29T09:39:05;2.80;;;2.40;;
11829;SDS011;5972;42.134;24.718;2022-07-29T09:41:43;2.70;;;2.58;;
11829;SDS011;5972;42.134;24.718;2022-07-29T09:44:11;4.30;;;2.50;;
11829;SDS011;5972;42.134;24.718;2022-07-29T09:46:39;3.10;;;2.60;;
11829;SDS011;5972;42.134;24.718;2022-07-29T09:49:09;3.97;;;2.40;;
11829;SDS011;5972;42.134;24.718;2022-07-29T09:51:37;3.25;;;2.45;;
11829;SDS011;5972;42.134;24.718;2022-07-29T09:56:50;3.15;;;2.50;;
11829;SDS011;5972;42.134;24.718;2022-07-29T09:59:18;3.65;;;2.58;;
11829;SDS011;5972;42.134;24.718;2022-07-29T10:01:49;2.60;;;2.40;;
11829;SDS011;5972;42.134;24.718;2022-07-29T10:04:17;2.65;;;2.45;;
11829;SDS011;5972;42.134;24.718;2022-07-29T10:06:57;5.63;;;2.65;;
11829;SDS011;5972;42.134;24.718;2022-07-29T10:09:25;3.58;;;2.00;;
11829;SDS011;5972;42.134;24.718;2022-07-29T10:12:08;3.50;;;2.08;;
11829;SDS011;5972;42.134;24.718;2022-07-29T10:14:38;3.17;;;2.08;;
11829;SDS011;5972;42.134;24.718;2022-07-29T10:17:06;5.47;;;2.17;;
11829;SDS011;5972;42.134;24.718;2022-07-29T10:19:36;4.43;;;2.20;;
11829;SDS011;5972;42.134;24.718;2022-07-29T10:22:05;3.03;;;2.45;;
11829;SDS011;5972;42.134;24.718;2022-07-29T10:24:32;5.03;;;2.55;;
11829;SDS011;5972;42.134;24.718;2022-07-29T10:27:01;2.72;;;2.53;;
11829;SDS011;5972;42.134;24.718;2022-07-29T10:29:29;3.30;;;2.42;;
11829;SDS011;5972;42.134;24.718;2022-07-29T10:35:11;2.80;;;2.33;;
11829;SDS011;5972;42.134;24.718;2022-07-29T10:41:03;2.72;;;2.28;;
11829;SDS011;5972;42.134;24.718;2022-07-29T10:43:53;2.60;;;2.40;;
11829;SDS011;5972;42.134;24.718;2022-07-29T10:46:23;2.70;;;2.50;;
11829;SDS011;5972;42.134;24.718;2022-07-29T10:49:07;4.90;;;2.33;;
11829;SDS011;5972;42.134;24.718;2022-07-29T10:51:53;3.42;;;2.65;;
11829;SDS011;5972;42.134;24.718;2022-07-29T10:54:38;3.00;;;2.80;;
11829;SDS011;5972;42.134;24.718;2022-07-29T10:57:17;3.53;;;2.20;;
11829;SDS011;5972;42.134;24.718;2022-07-29T10:59:46;2.50;;;2.30;;
11829;SDS011;5972;42.134;24.718;2022-07-29T11:05:16;3.28;;;2.72;;
11829;SDS011;5972;42.134;24.718;2022-07-29T11:10:46;4.25;;;3.03;;
11829;SDS011;5972;42.134;24.718;2022-07-29T11:16:12;5.95;;;2.80;;
11829;SDS011;5972;42.134;24.718;2022-07-29T11:21:46;4.97;;;3.10;;
11829;SDS011;5972;42.134;24.718;2022-07-29T11:24:16;4.78;;;2.95;;
11829;SDS011;5972;42.134;24.718;2022-07-29T11:26:46;2.88;;;2.67;;
11829;SDS011;5972;42.134;24.718;2022-07-29T11:29:32;4.75;;;2.65;;
11829;SDS011;5972;42.134;24.718;2022-07-29T11:32:07;6.45;;;2.63;;
11829;SDS011;5972;42.134;24.718;2022-07-29T11:34:35;4.15;;;2.60;;
11829;SDS011;5972;42.134;24.718;2022-07-29T11:37:18;4.07;;;3.00;;
11829;SDS011;5972;42.134;24.718;2022-07-29T11:42:48;3.95;;;2.80;;
11829;SDS011;5972;42.134;24.718;2022-07-29T11:45:20;6.45;;;2.80;;
11829;SDS011;5972;42.134;24.718;2022-07-29T11:47:52;4.00;;;2.90;;
11829;SDS011;5972;42.134;24.718;2022-07-29T11:50:27;2.92;;;2.72;;
11829;SDS011;5972;42.134;24.718;2022-07-29T11:52:59;6.32;;;2.75;;
11829;SDS011;5972;42.134;24.718;2022-07-29T11:55:29;5.28;;;2.65;;
11829;SDS011;5972;42.134;24.718;2022-07-29T11:58:00;3.38;;;2.40;;
11829;SDS011;5972;42.134;24.718;2022-07-29T12:00:29;3.78;;;3.08;;
11829;SDS011;5972;42.134;24.718;2022-07-29T12:02:57;3.97;;;2.58;;
11829;SDS011;5972;42.134;24.718;2022-07-29T12:05:33;3.95;;;2.75;;
11829;SDS011;5972;42.134;24.718;2022-07-29T12:08:10;5.28;;;2.78;;
11829;SDS011;5972;42.134;24.718;2022-07-29T12:10:40;3.65;;;2.72;;
11829;SDS011;5972;42.134;24.718;2022-07-29T12:13:09;4.13;;;2.50;;
11829;SDS011;5972;42.134;24.718;2022-07-29T12:15:36;7.25;;;3.13;;
11829;SDS011;5972;42.134;24.718;2022-07-29T12:18:13;4.38;;;2.40;;
11829;SDS011;5972;42.134;24.718;2022-07-29T12:20:41;4.68;;;2.53;;
11829;SDS011;5972;42.134;24.718;2022-07-29T12:23:09;3.85;;;2.35;;
11829;SDS011;5972;42.134;24.718;2022-07-29T12:25:40;3.03;;;2.70;;
11829;SDS011;5972;42.134;24.718;2022-07-29T12:28:08;5.57;;;3.00;;
11829;SDS011;5972;42.134;24.718;2022-07-29T12:30:41;4.05;;;2.53;;
11829;SDS011;5972;42.134;24.718;2022-07-29T12:33:11;5.60;;;2.53;;
11829;SDS011;5972;42.134;24.718;2022-07-29T12:35:46;3.08;;;2.60;;
11829;SDS011;5972;42.134;24.718;2022-07-29T12:38:16;3.60;;;2.70;;
11829;SDS011;5972;42.134;24.718;2022-07-29T12:40:45;4.07;;;2.58;;
11829;SDS011;5972;42.134;24.718;2022-07-29T12:43:13;4.00;;;2.55;;
11829;SDS011;5972;42.134;24.718;2022-07-29T12:45:42;3.35;;;2.15;;
11829;SDS011;5972;42.134;24.718;2022-07-29T12:48:10;4.25;;;2.40;;
11829;SDS011;5972;42.134;24.718;2022-07-29T12:50:51;3.45;;;2.42;;
11829;SDS011;5972;42.134;24.718;2022-07-29T12:53:22;4.05;;;2.30;;
11829;SDS011;5972;42.134;24.718;2022-07-29T12:55:52;2.72;;;2.53;;
11829;SDS011;5972;42.134;24.718;2022-07-29T12:58:30;3.75;;;3.00;;
11829;SDS011;5972;42.134;24.718;2022-07-29T13:01:09;4.18;;;2.38;;
11829;SDS011;5972;42.134;24.718;2022-07-29T13:03:44;6.75;;;2.80;;
11829;SDS011;5972;42.134;24.718;2022-07-29T13:06:32;3.15;;;2.60;;
11829;SDS011;5972;42.134;24.718;2022-07-29T13:09:05;4.32;;;2.60;;
11829;SDS011;5972;42.134;24.718;2022-07-29T13:11:35;4.68;;;3.08;;
11829;SDS011;5972;42.134;24.718;2022-07-29T13:14:04;4.32;;;3.25;;
11829;SDS011;5972;42.134;24.718;2022-07-29T13:16:33;5.85;;;2.90;;
11829;SDS011;5972;42.134;24.718;2022-07-29T13:19:04;3.58;;;2.90;;
11829;SDS011;5972;42.134;24.718;2022-07-29T13:21:32;6.60;;;3.08;;
11829;SDS011;5972;42.134;24.718;2022-07-29T13:23:59;5.40;;;3.05;;
11829;SDS011;5972;42.134;24.718;2022-07-29T13:26:26;7.93;;;3.13;;
11829;SDS011;5972;42.134;24.718;2022-07-29T13:28:55;3.03;;;2.83;;
11829;SDS011;5972;42.134;24.718;2022-07-29T13:31:22;6.45;;;2.80;;
11829;SDS011;5972;42.134;24.718;2022-07-29T13:33:49;4.40;;;2.80;;
11829;SDS011;5972;42.134;24.718;2022-07-29T13:36:15;3.97;;;2.90;;
11829;SDS011;5972;42.134;24.718;2022-07-29T13:38:42;7.18;;;3.20;;
11829;SDS011;5972;42.134;24.718;2022-07-29T13:41:09;5.80;;;3.08;;
11829;SDS011;5972;42.134;24.718;2022-07-29T13:43:36;4.28;;;3.30;;
11829;SDS011;5972;42.134;24.718;2022-07-29T13:46:04;6.72;;;3.25;;
11829;SDS011;5972;42.134;24.718;2022-07-29T13:48:31;3.50;;;3.20;;
11829;SDS011;5972;42.134;24.718;2022-07-29T13:50:58;4.22;;;2.95;;
11829;SDS011;5972;42.134;24.718;2022-07-29T13:53:25;6.38;;;3.05;;
11829;SDS011;5972;42.134;24.718;2022-07-29T13:55:53;4.55;;;2.92;;
11829;SDS011;5972;42.134;24.718;2022-07-29T13:58:20;5.32;;;3.30;;
11829;SDS011;5972;42.134;24.718;2022-07-29T14:00:47;3.40;;;3.10;;
11829;SDS011;5972;42.134;24.718;2022-07-29T14:03:15;5.00;;;2.92;;
11829;SDS011;5972;42.134;24.718;2022-07-29T14:05:42;3.22;;;2.92;;
11829;SDS011;5972;42.134;24.718;2022-07-29T14:08:08;6.13;;;3.10;;
11829;SDS011;5972;42.134;24.718;2022-07-29T14:10:35;3.50;;;3.20;;
11829;SDS011;5972;42.134;24.718;2022-07-29T14:13:02;4.35;;;3.08;;
11829;SDS011;5972;42.134;24.718;2022-07-29T14:15:29;5.78;;;3.00;;
11829;SDS011;5972;42.134;24.718;2022-07-29T14:17:56;3.95;;;3.08;;
11829;SDS011;5972;42.134;24.718;2022-07-29T14:20:24;8.13;;;2.95;;
11829;SDS011;5972;42.134;24.718;2022-07-29T14:22:53;6.85;;;2.88;;
11829;SDS011;5972;42.134;24.718;2022-07-29T14:25:20;3.20;;;2.70;;
11829;SDS011;5972;42.134;24.718;2022-07-29T14:27:47;4.75;;;2.75;;
11829;SDS011;5972;42.134;24.718;2022-07-29T14:30:14;2.50;;;2.30;;
11829;SDS011;5972;42.134;24.718;2022-07-29T14:32:41;2.58;;;2.38;;
11829;SDS011;5972;42.134;24.718;2022-07-29T14:35:08;3.22;;;2.75;;
11829;SDS011;5972;42.134;24.718;2022-07-29T14:37:36;3.67;;;2.35;;
11829;SDS011;5972;42.134;24.718;2022-07-29T14:40:03;3.03;;;2.78;;
11829;SDS011;5972;42.134;24.718;2022-07-29T14:42:31;2.50;;;2.33;;
11829;SDS011;5972;42.134;24.718;2022-07-29T14:44:58;3.63;;;2.45;;
11829;SDS011;5972;42.134;24.718;2022-07-29T14:47:25;2.58;;;2.38;;
11829;SDS011;5972;42.134;24.718;2022-07-29T14:49:52;4.13;;;2.50;;
11829;SDS011;5972;42.134;24.718;2022-07-29T14:52:18;2.95;;;2.50;;
11829;SDS011;5972;42.134;24.718;2022-07-29T14:54:47;4.57;;;2.58;;
11829;SDS011;5972;42.134;24.718;2022-07-29T14:57:14;2.53;;;2.33;;
11829;SDS011;5972;42.134;24.718;2022-07-29T14:59:41;4.28;;;2.67;;
11829;SDS011;5972;42.134;24.718;2022-07-29T15:02:08;2.65;;;2.45;;
11829;SDS011;5972;42.134;24.718;2022-07-29T15:04:35;5.82;;;2.40;;
11829;SDS011;5972;42.134;24.718;2022-07-29T15:07:02;3.83;;;2.30;;
11829;SDS011;5972;42.134;24.718;2022-07-29T15:09:29;3.58;;;2.70;;
11829;SDS011;5972;42.134;24.718;2022-07-29T15:11:57;3.03;;;2.42;;
11829;SDS011;5972;42.134;24.718;2022-07-29T15:14:24;6.70;;;2.60;;
11829;SDS011;5972;42.134;24.718;2022-07-29T15:16:51;2.70;;;2.50;;
11829;SDS011;5972;42.134;24.718;2022-07-29T15:19:18;3.33;;;2.40;;
11829;SDS011;5972;42.134;24.718;2022-07-29T15:21:45;2.80;;;2.60;;
11829;SDS011;5972;42.134;24.718;2022-07-29T15:24:12;2.75;;;2.50;;